sensor_id;sensor_type;location;lat;lon;timestamp;temperature;humidity
70460;DHT22;57920;54.796;9.430;2022-12-07T00:00:55;20.40;35.50
70460;DHT22;57920;54.796;9.430;2022-12-07T00:03:21;20.40;35.60
70460;DHT22;57920;54.796;9.430;2022-12-07T00:05:46;20.30;35.60
70460;DHT22;57920;54.796;9.430;2022-12-07T00:08:12;20.30;35.50
70460;DHT22;57920;54.796;9.430;2022-12-07T00:10:37;20.30;35.60
70460;DHT22;57920;54.796;9.430;2022-12-07T00:13:03;20.30;35.50
70460;DHT22;57920;54.796;9.430;2022-12-07T00:15:33;20.30;35.50
70460;DHT22;57920;54.796;9.430;2022-12-07T00:17:59;20.30;35.50
70460;DHT22;57920;54.796;9.430;2022-12-07T00:20:25;20.30;35.50
70460;DHT22;57920;54.796;9.430;2022-12-07T00:22:50;20.30;35.60
70460;DHT22;57920;54.796;9.430;2022-12-07T00:25:16;20.30;35.70
70460;DHT22;57920;54.796;9.430;2022-12-07T00:27:42;20.30;35.70
70460;DHT22;57920;54.796;9.430;2022-12-07T00:30:08;20.30;35.60
70460;DHT22;57920;54.796;9.430;2022-12-07T00:32:33;20.40;35.50
70460;DHT22;57920;54.796;9.430;2022-12-07T00:34:59;20.40;35.50
70460;DHT22;57920;54.796;9.430;2022-12-07T00:37:24;20.40;35.50
70460;DHT22;57920;54.796;9.430;2022-12-07T00:39:50;20.50;35.50
70460;DHT22;57920;54.796;9.430;2022-12-07T00:42:15;20.50;35.50
70460;DHT22;57920;54.796;9.430;2022-12-07T00:44:41;20.50;35.40
70460;DHT22;57920;54.796;9.430;2022-12-07T00:47:06;20.50;35.30
70460;DHT22;57920;54.796;9.430;2022-12-07T00:49:32;20.50;35.40
70460;DHT22;57920;54.796;9.430;2022-12-07T00:51:57;20.50;35.40
70460;DHT22;57920;54.796;9.430;2022-12-07T00:54:23;20.50;35.40
70460;DHT22;57920;54.796;9.430;2022-12-07T00:56:49;20.50;35.30
70460;DHT22;57920;54.796;9.430;2022-12-07T00:59:14;20.50;35.40
70460;DHT22;57920;54.796;9.430;2022-12-07T01:01:40;20.50;35.40
70460;DHT22;57920;54.796;9.430;2022-12-07T01:04:06;20.50;35.40
70460;DHT22;57920;54.796;9.430;2022-12-07T01:06:32;20.50;35.40
70460;DHT22;57920;54.796;9.430;2022-12-07T01:08:58;20.50;35.40
70460;DHT22;57920;54.796;9.430;2022-12-07T01:11:26;20.50;35.40
70460;DHT22;57920;54.796;9.430;2022-12-07T01:13:54;20.50;35.50
70460;DHT22;57920;54.796;9.430;2022-12-07T01:16:24;20.50;35.50
70460;DHT22;57920;54.796;9.430;2022-12-07T01:18:52;20.50;35.50
70460;DHT22;57920;54.796;9.430;2022-12-07T01:21:21;20.50;35.50
70460;DHT22;57920;54.796;9.430;2022-12-07T01:23:47;20.40;35.50
70460;DHT22;57920;54.796;9.430;2022-12-07T01:26:16;20.40;35.50
70460;DHT22;57920;54.796;9.430;2022-12-07T01:28:42;20.40;35.50
70460;DHT22;57920;54.796;9.430;2022-12-07T01:31:11;20.30;35.50
70460;DHT22;57920;54.796;9.430;2022-12-07T01:33:38;20.40;35.50
70460;DHT22;57920;54.796;9.430;2022-12-07T01:36:12;20.40;35.50
70460;DHT22;57920;54.796;9.430;2022-12-07T01:38:38;20.30;35.50
70460;DHT22;57920;54.796;9.430;2022-12-07T01:41:04;20.30;35.50
70460;DHT22;57920;54.796;9.430;2022-12-07T01:43:32;20.30;35.60
70460;DHT22;57920;54.796;9.430;2022-12-07T01:45:58;20.30;35.50
70460;DHT22;57920;54.796;9.430;2022-12-07T01:48:39;20.30;35.40
70460;DHT22;57920;54.796;9.430;2022-12-07T01:51:09;20.40;35.40
70460;DHT22;57920;54.796;9.430;2022-12-07T01:53:41;20.40;35.40
70460;DHT22;57920;54.796;9.430;2022-12-07T01:56:10;20.30;35.30
70460;DHT22;57920;54.796;9.430;2022-12-07T01:58:36;20.30;35.40
70460;DHT22;57920;54.796;9.430;2022-12-07T02:01:03;20.30;35.30
70460;DHT22;57920;54.796;9.430;2022-12-07T02:03:36;20.30;35.30
70460;DHT22;57920;54.796;9.430;2022-12-07T02:06:04;20.30;35.30
70460;DHT22;57920;54.796;9.430;2022-12-07T02:08:30;20.30;35.40
70460;DHT22;57920;54.796;9.430;2022-12-07T02:11:01;20.30;35.40
70460;DHT22;57920;54.796;9.430;2022-12-07T02:13:31;20.30;35.50
70460;DHT22;57920;54.796;9.430;2022-12-07T02:26:49;20.40;35.30
70460;DHT22;57920;54.796;9.430;2022-12-07T02:34:55;20.50;35.30
70460;DHT22;57920;54.796;9.430;2022-12-07T02:39:59;20.50;35.30
70460;DHT22;57920;54.796;9.430;2022-12-07T02:42:34;20.50;35.30
70460;DHT22;57920;54.796;9.430;2022-12-07T02:45:03;20.50;35.30
70460;DHT22;57920;54.796;9.430;2022-12-07T02:47:32;20.50;35.30
70460;DHT22;57920;54.796;9.430;2022-12-07T02:49:58;20.50;35.40
70460;DHT22;57920;54.796;9.430;2022-12-07T02:52:24;20.50;35.30
70460;DHT22;57920;54.796;9.430;2022-12-07T02:54:49;20.50;35.30
70460;DHT22;57920;54.796;9.430;2022-12-07T02:57:45;20.50;35.30
70460;DHT22;57920;54.796;9.430;2022-12-07T03:00:15;20.50;35.30
70460;DHT22;57920;54.796;9.430;2022-12-07T03:05:42;20.40;35.30
70460;DHT22;57920;54.796;9.430;2022-12-07T03:08:44;20.50;35.30
70460;DHT22;57920;54.796;9.430;2022-12-07T03:11:13;20.40;35.20
70460;DHT22;57920;54.796;9.430;2022-12-07T03:13:41;20.40;35.20
70460;DHT22;57920;54.796;9.430;2022-12-07T03:16:25;20.40;35.20
70460;DHT22;57920;54.796;9.430;2022-12-07T03:18:56;20.40;35.20
70460;DHT22;57920;54.796;9.430;2022-12-07T03:21:27;20.40;35.20
70460;DHT22;57920;54.796;9.430;2022-12-07T03:23:56;20.40;35.20
70460;DHT22;57920;54.796;9.430;2022-12-07T03:26:30;20.30;35.20
70460;DHT22;57920;54.796;9.430;2022-12-07T03:28:59;20.40;35.20
70460;DHT22;57920;54.796;9.430;2022-12-07T03:31:30;20.40;35.10
70460;DHT22;57920;54.796;9.430;2022-12-07T03:34:02;20.30;35.10
70460;DHT22;57920;54.796;9.430;2022-12-07T03:36:32;20.30;35.10
70460;DHT22;57920;54.796;9.430;2022-12-07T03:39:24;20.30;35.10
70460;DHT22;57920;54.796;9.430;2022-12-07T03:41:52;20.30;35.10
70460;DHT22;57920;54.796;9.430;2022-12-07T03:44:18;20.30;35.10
70460;DHT22;57920;54.796;9.430;2022-12-07T03:47:09;20.30;35.10
70460;DHT22;57920;54.796;9.430;2022-12-07T03:49:43;20.30;35.20
70460;DHT22;57920;54.796;9.430;2022-12-07T03:52:18;20.30;35.30
70460;DHT22;57920;54.796;9.430;2022-12-07T03:54:57;20.30;35.30
70460;DHT22;57920;54.796;9.430;2022-12-07T03:57:25;20.30;35.40
70460;DHT22;57920;54.796;9.430;2022-12-07T03:59:51;20.30;35.30
70460;DHT22;57920;54.796;9.430;2022-12-07T04:02:19;20.30;35.30
70460;DHT22;57920;54.796;9.430;2022-12-07T04:04:45;20.30;35.30
70460;DHT22;57920;54.796;9.430;2022-12-07T04:07:11;20.30;35.20
70460;DHT22;57920;54.796;9.430;2022-12-07T04:09:38;20.30;35.10
70460;DHT22;57920;54.796;9.430;2022-12-07T04:12:04;20.40;35.10
70460;DHT22;57920;54.796;9.430;2022-12-07T04:14:29;20.40;35.10
70460;DHT22;57920;54.796;9.430;2022-12-07T04:16:57;20.50;35.00
70460;DHT22;57920;54.796;9.430;2022-12-07T04:19:25;20.50;35.00
70460;DHT22;57920;54.796;9.430;2022-12-07T04:21:51;20.50;35.00
70460;DHT22;57920;54.796;9.430;2022-12-07T04:24:17;20.50;35.00
70460;DHT22;57920;54.796;9.430;2022-12-07T04:26:43;20.50;35.00
70460;DHT22;57920;54.796;9.430;2022-12-07T04:29:10;20.50;35.00
70460;DHT22;57920;54.796;9.430;2022-12-07T04:31:36;20.50;35.00
70460;DHT22;57920;54.796;9.430;2022-12-07T04:34:02;20.50;35.10
70460;DHT22;57920;54.796;9.430;2022-12-07T04:36:28;20.50;35.00
70460;DHT22;57920;54.796;9.430;2022-12-07T04:38:54;20.50;35.10
70460;DHT22;57920;54.796;9.430;2022-12-07T04:41:22;20.50;35.10
70460;DHT22;57920;54.796;9.430;2022-12-07T04:43:59;20.50;35.10
70460;DHT22;57920;54.796;9.430;2022-12-07T04:46:26;20.50;35.20
70460;DHT22;57920;54.796;9.430;2022-12-07T04:48:53;20.40;35.20
70460;DHT22;57920;54.796;9.430;2022-12-07T04:51:23;20.40;35.20
70460;DHT22;57920;54.796;9.430;2022-12-07T04:53:49;20.30;35.30
70460;DHT22;57920;54.796;9.430;2022-12-07T04:56:15;20.30;35.30
70460;DHT22;57920;54.796;9.430;2022-12-07T04:58:42;20.30;35.40
70460;DHT22;57920;54.796;9.430;2022-12-07T05:01:08;20.30;35.40
70460;DHT22;57920;54.796;9.430;2022-12-07T05:03:35;20.30;35.40
70460;DHT22;57920;54.796;9.430;2022-12-07T05:06:00;20.30;35.40
70460;DHT22;57920;54.796;9.430;2022-12-07T05:08:26;20.30;35.30
70460;DHT22;57920;54.796;9.430;2022-12-07T05:10:51;20.30;35.30
70460;DHT22;57920;54.796;9.430;2022-12-07T05:13:17;20.30;35.30
70460;DHT22;57920;54.796;9.430;2022-12-07T05:15:42;20.30;35.30
70460;DHT22;57920;54.796;9.430;2022-12-07T05:18:10;20.30;35.20
70460;DHT22;57920;54.796;9.430;2022-12-07T05:20:38;20.40;35.10
70460;DHT22;57920;54.796;9.430;2022-12-07T05:23:04;20.40;35.10
70460;DHT22;57920;54.796;9.430;2022-12-07T05:25:29;20.50;35.00
70460;DHT22;57920;54.796;9.430;2022-12-07T05:27:55;20.40;35.00
70460;DHT22;57920;54.796;9.430;2022-12-07T05:30:22;20.50;35.00
70460;DHT22;57920;54.796;9.430;2022-12-07T05:32:48;20.50;35.00
70460;DHT22;57920;54.796;9.430;2022-12-07T05:35:13;20.50;35.00
70460;DHT22;57920;54.796;9.430;2022-12-07T05:37:39;20.40;35.00
70460;DHT22;57920;54.796;9.430;2022-12-07T05:40:14;20.40;35.00
70460;DHT22;57920;54.796;9.430;2022-12-07T05:42:40;20.40;35.00
70460;DHT22;57920;54.796;9.430;2022-12-07T05:45:06;20.30;35.20
70460;DHT22;57920;54.796;9.430;2022-12-07T05:47:32;20.30;35.20
70460;DHT22;57920;54.796;9.430;2022-12-07T05:49:58;20.30;35.20
70460;DHT22;57920;54.796;9.430;2022-12-07T05:52:23;20.30;35.30
70460;DHT22;57920;54.796;9.430;2022-12-07T05:54:49;20.30;35.30
70460;DHT22;57920;54.796;9.430;2022-12-07T05:57:15;20.30;35.30
70460;DHT22;57920;54.796;9.430;2022-12-07T05:59:40;20.30;35.20
70460;DHT22;57920;54.796;9.430;2022-12-07T06:02:09;20.30;35.20
70460;DHT22;57920;54.796;9.430;2022-12-07T06:04:37;20.40;35.20
70460;DHT22;57920;54.796;9.430;2022-12-07T06:07:05;20.40;35.10
70460;DHT22;57920;54.796;9.430;2022-12-07T06:09:31;20.40;35.10
70460;DHT22;57920;54.796;9.430;2022-12-07T06:11:58;20.50;35.10
70460;DHT22;57920;54.796;9.430;2022-12-07T06:14:43;20.50;35.00
70460;DHT22;57920;54.796;9.430;2022-12-07T06:17:09;20.50;35.00
70460;DHT22;57920;54.796;9.430;2022-12-07T06:19:35;20.50;35.00
70460;DHT22;57920;54.796;9.430;2022-12-07T06:22:01;20.50;35.00
70460;DHT22;57920;54.796;9.430;2022-12-07T06:24:28;20.50;34.90
70460;DHT22;57920;54.796;9.430;2022-12-07T06:26:53;20.50;35.00
70460;DHT22;57920;54.796;9.430;2022-12-07T06:29:19;20.50;35.00
70460;DHT22;57920;54.796;9.430;2022-12-07T06:31:45;20.50;34.90
70460;DHT22;57920;54.796;9.430;2022-12-07T06:34:14;20.50;34.80
70460;DHT22;57920;54.796;9.430;2022-12-07T06:36:40;20.50;34.80
70460;DHT22;57920;54.796;9.430;2022-12-07T06:39:06;20.50;34.80
70460;DHT22;57920;54.796;9.430;2022-12-07T06:41:38;20.60;34.90
70460;DHT22;57920;54.796;9.430;2022-12-07T06:44:05;20.50;34.90
70460;DHT22;57920;54.796;9.430;2022-12-07T06:46:34;20.50;34.90
70460;DHT22;57920;54.796;9.430;2022-12-07T06:49:01;20.50;34.90
70460;DHT22;57920;54.796;9.430;2022-12-07T06:51:26;20.50;35.00
70460;DHT22;57920;54.796;9.430;2022-12-07T06:53:52;20.50;35.00
70460;DHT22;57920;54.796;9.430;2022-12-07T06:56:18;20.50;35.70
70460;DHT22;57920;54.796;9.430;2022-12-07T06:58:43;20.50;35.70
70460;DHT22;57920;54.796;9.430;2022-12-07T07:01:10;20.50;35.60
70460;DHT22;57920;54.796;9.430;2022-12-07T07:03:36;20.50;35.40
70460;DHT22;57920;54.796;9.430;2022-12-07T07:06:02;20.50;35.40
70460;DHT22;57920;54.796;9.430;2022-12-07T07:08:27;20.40;35.50
70460;DHT22;57920;54.796;9.430;2022-12-07T07:10:53;20.50;35.60
70460;DHT22;57920;54.796;9.430;2022-12-07T07:13:19;20.40;35.50
70460;DHT22;57920;54.796;9.430;2022-12-07T07:22:28;20.50;35.30
70460;DHT22;57920;54.796;9.430;2022-12-07T07:24:53;20.60;35.30
70460;DHT22;57920;54.796;9.430;2022-12-07T07:27:19;20.60;35.30
70460;DHT22;57920;54.796;9.430;2022-12-07T07:29:45;20.60;35.30
70460;DHT22;57920;54.796;9.430;2022-12-07T07:32:10;20.60;35.30
70460;DHT22;57920;54.796;9.430;2022-12-07T07:34:36;20.60;35.40
70460;DHT22;57920;54.796;9.430;2022-12-07T07:37:01;20.60;35.80
70460;DHT22;57920;54.796;9.430;2022-12-07T07:39:27;20.60;35.60
70460;DHT22;57920;54.796;9.430;2022-12-07T07:41:52;20.70;35.50
70460;DHT22;57920;54.796;9.430;2022-12-07T07:44:18;20.70;35.50
70460;DHT22;57920;54.796;9.430;2022-12-07T07:49:56;20.70;35.50
70460;DHT22;57920;54.796;9.430;2022-12-07T07:52:22;20.80;35.60
70460;DHT22;57920;54.796;9.430;2022-12-07T07:54:47;20.80;35.60
70460;DHT22;57920;54.796;9.430;2022-12-07T07:57:13;20.80;35.50
70460;DHT22;57920;54.796;9.430;2022-12-07T07:59:39;20.80;35.40
70460;DHT22;57920;54.796;9.430;2022-12-07T08:02:04;20.80;35.30
70460;DHT22;57920;54.796;9.430;2022-12-07T08:04:30;20.80;35.30
70460;DHT22;57920;54.796;9.430;2022-12-07T08:06:56;20.80;35.50
70460;DHT22;57920;54.796;9.430;2022-12-07T08:09:22;20.80;35.90
70460;DHT22;57920;54.796;9.430;2022-12-07T08:11:48;20.80;35.70
70460;DHT22;57920;54.796;9.430;2022-12-07T08:14:13;20.80;35.60
70460;DHT22;57920;54.796;9.430;2022-12-07T08:16:54;20.70;35.70
70460;DHT22;57920;54.796;9.430;2022-12-07T08:19:20;20.70;35.60
70460;DHT22;57920;54.796;9.430;2022-12-07T08:21:45;20.70;35.50
70460;DHT22;57920;54.796;9.430;2022-12-07T08:24:11;20.70;35.40
70460;DHT22;57920;54.796;9.430;2022-12-07T08:26:37;20.80;35.50
70460;DHT22;57920;54.796;9.430;2022-12-07T08:29:02;20.80;35.50
70460;DHT22;57920;54.796;9.430;2022-12-07T08:31:28;20.80;35.30
70460;DHT22;57920;54.796;9.430;2022-12-07T08:33:54;20.80;35.50
70460;DHT22;57920;54.796;9.430;2022-12-07T08:36:20;20.80;35.30
70460;DHT22;57920;54.796;9.430;2022-12-07T08:38:47;20.90;35.20
70460;DHT22;57920;54.796;9.430;2022-12-07T08:41:12;20.90;35.20
70460;DHT22;57920;54.796;9.430;2022-12-07T08:43:38;20.90;35.30
70460;DHT22;57920;54.796;9.430;2022-12-07T08:46:11;20.80;35.10
70460;DHT22;57920;54.796;9.430;2022-12-07T08:51:15;20.80;35.60
70460;DHT22;57920;54.796;9.430;2022-12-07T08:53:42;20.80;35.60
70460;DHT22;57920;54.796;9.430;2022-12-07T08:56:09;20.80;35.80
70460;DHT22;57920;54.796;9.430;2022-12-07T08:58:35;20.80;36.40
70460;DHT22;57920;54.796;9.430;2022-12-07T09:01:01;20.80;35.90
70460;DHT22;57920;54.796;9.430;2022-12-07T09:03:27;20.80;36.10
70460;DHT22;57920;54.796;9.430;2022-12-07T09:05:53;20.70;36.10
70460;DHT22;57920;54.796;9.430;2022-12-07T09:08:20;20.70;35.90
70460;DHT22;57920;54.796;9.430;2022-12-07T09:10:46;20.70;36.20
70460;DHT22;57920;54.796;9.430;2022-12-07T09:13:11;20.70;35.90
70460;DHT22;57920;54.796;9.430;2022-12-07T09:15:42;20.70;35.70
70460;DHT22;57920;54.796;9.430;2022-12-07T09:18:08;20.70;35.70
70460;DHT22;57920;54.796;9.430;2022-12-07T09:20:33;20.70;36.20
70460;DHT22;57920;54.796;9.430;2022-12-07T09:22:59;20.70;35.80
70460;DHT22;57920;54.796;9.430;2022-12-07T09:25:25;20.60;35.60
70460;DHT22;57920;54.796;9.430;2022-12-07T09:27:56;20.60;35.50
70460;DHT22;57920;54.796;9.430;2022-12-07T09:30:22;20.60;35.50
70460;DHT22;57920;54.796;9.430;2022-12-07T09:32:47;20.60;35.60
70460;DHT22;57920;54.796;9.430;2022-12-07T09:35:13;20.60;35.30
70460;DHT22;57920;54.796;9.430;2022-12-07T09:37:38;20.70;35.20
70460;DHT22;57920;54.796;9.430;2022-12-07T09:40:05;20.70;35.10
70460;DHT22;57920;54.796;9.430;2022-12-07T09:42:34;20.70;35.10
70460;DHT22;57920;54.796;9.430;2022-12-07T09:45:22;20.70;35.10
70460;DHT22;57920;54.796;9.430;2022-12-07T09:47:48;20.70;35.00
70460;DHT22;57920;54.796;9.430;2022-12-07T09:50:21;20.80;35.00
70460;DHT22;57920;54.796;9.430;2022-12-07T09:52:49;20.80;35.00
70460;DHT22;57920;54.796;9.430;2022-12-07T09:55:19;20.80;34.90
70460;DHT22;57920;54.796;9.430;2022-12-07T09:57:47;20.80;34.80
70460;DHT22;57920;54.796;9.430;2022-12-07T10:00:15;20.80;34.80
70460;DHT22;57920;54.796;9.430;2022-12-07T10:02:44;20.80;34.80
70460;DHT22;57920;54.796;9.430;2022-12-07T10:05:14;20.70;34.80
70460;DHT22;57920;54.796;9.430;2022-12-07T10:07:40;20.70;34.80
70460;DHT22;57920;54.796;9.430;2022-12-07T10:10:13;20.70;34.80
70460;DHT22;57920;54.796;9.430;2022-12-07T10:13:02;20.70;34.80
70460;DHT22;57920;54.796;9.430;2022-12-07T10:16:03;20.70;34.70
70460;DHT22;57920;54.796;9.430;2022-12-07T10:18:33;20.70;34.80
70460;DHT22;57920;54.796;9.430;2022-12-07T10:21:21;20.70;34.70
70460;DHT22;57920;54.796;9.430;2022-12-07T10:24:05;20.70;35.00
70460;DHT22;57920;54.796;9.430;2022-12-07T10:26:36;20.80;34.80
70460;DHT22;57920;54.796;9.430;2022-12-07T10:29:17;20.80;35.00
70460;DHT22;57920;54.796;9.430;2022-12-07T10:31:45;20.80;34.70
70460;DHT22;57920;54.796;9.430;2022-12-07T10:34:24;20.90;35.30
70460;DHT22;57920;54.796;9.430;2022-12-07T10:36:51;20.90;35.20
70460;DHT22;57920;54.796;9.430;2022-12-07T10:39:19;20.80;35.10
70460;DHT22;57920;54.796;9.430;2022-12-07T10:42:02;20.90;35.10
70460;DHT22;57920;54.796;9.430;2022-12-07T10:44:29;20.80;35.30
70460;DHT22;57920;54.796;9.430;2022-12-07T10:55:11;20.80;36.00
70460;DHT22;57920;54.796;9.430;2022-12-07T11:00:25;20.70;35.70
70460;DHT22;57920;54.796;9.430;2022-12-07T11:03:05;20.70;35.80
70460;DHT22;57920;54.796;9.430;2022-12-07T11:10:57;20.70;36.40
70460;DHT22;57920;54.796;9.430;2022-12-07T11:13:40;20.70;36.00
70460;DHT22;57920;54.796;9.430;2022-12-07T11:21:45;20.70;36.00
70460;DHT22;57920;54.796;9.430;2022-12-07T11:24:19;20.70;36.00
70460;DHT22;57920;54.796;9.430;2022-12-07T11:38:00;20.70;35.40
70460;DHT22;57920;54.796;9.430;2022-12-07T11:40:30;20.70;35.30
70460;DHT22;57920;54.796;9.430;2022-12-07T11:43:32;20.70;35.20
70460;DHT22;57920;54.796;9.430;2022-12-07T11:46:15;20.70;35.30
70460;DHT22;57920;54.796;9.430;2022-12-07T11:48:47;20.70;35.20
70460;DHT22;57920;54.796;9.430;2022-12-07T11:51:16;20.80;35.10
70460;DHT22;57920;54.796;9.430;2022-12-07T11:53:48;20.70;35.10
70460;DHT22;57920;54.796;9.430;2022-12-07T11:56:16;20.80;35.00
70460;DHT22;57920;54.796;9.430;2022-12-07T11:59:11;20.80;35.00
70460;DHT22;57920;54.796;9.430;2022-12-07T12:06:35;20.70;34.90
70460;DHT22;57920;54.796;9.430;2022-12-07T12:09:25;20.70;34.80
70460;DHT22;57920;54.796;9.430;2022-12-07T12:20:54;20.70;34.80
70460;DHT22;57920;54.796;9.430;2022-12-07T12:23:36;20.80;34.80
70460;DHT22;57920;54.796;9.430;2022-12-07T12:26:05;20.80;35.00
70460;DHT22;57920;54.796;9.430;2022-12-07T12:28:40;20.80;34.70
70460;DHT22;57920;54.796;9.430;2022-12-07T12:31:14;20.80;35.00
70460;DHT22;57920;54.796;9.430;2022-12-07T12:33:57;20.90;35.10
70460;DHT22;57920;54.796;9.430;2022-12-07T12:50:16;20.80;35.40
70460;DHT22;57920;54.796;9.430;2022-12-07T12:57:36;20.80;35.40
70460;DHT22;57920;54.796;9.430;2022-12-07T13:00:23;20.80;35.80
70460;DHT22;57920;54.796;9.430;2022-12-07T13:02:54;20.70;35.90
70460;DHT22;57920;54.796;9.430;2022-12-07T13:05:29;20.80;36.10
70460;DHT22;57920;54.796;9.430;2022-12-07T13:08:02;20.70;36.30
70460;DHT22;57920;54.796;9.430;2022-12-07T13:10:37;20.70;36.20
70460;DHT22;57920;54.796;9.430;2022-12-07T13:16:35;20.70;36.20
70460;DHT22;57920;54.796;9.430;2022-12-07T13:18:41;20.70;36.40
70460;DHT22;57920;54.796;9.430;2022-12-07T13:23:56;20.70;36.40
70460;DHT22;57920;54.796;9.430;2022-12-07T13:26:35;20.70;36.30
70460;DHT22;57920;54.796;9.430;2022-12-07T13:34:37;20.80;36.00
70460;DHT22;57920;54.796;9.430;2022-12-07T13:39:52;20.80;35.90
70460;DHT22;57920;54.796;9.430;2022-12-07T13:45:26;20.80;36.10
70460;DHT22;57920;54.796;9.430;2022-12-07T13:48:33;20.90;36.50
70460;DHT22;57920;54.796;9.430;2022-12-07T13:51:03;20.90;36.30
70460;DHT22;57920;54.796;9.430;2022-12-07T13:53:29;20.90;36.70
70460;DHT22;57920;54.796;9.430;2022-12-07T13:55:59;20.90;36.40
70460;DHT22;57920;54.796;9.430;2022-12-07T13:58:27;20.90;36.60
70460;DHT22;57920;54.796;9.430;2022-12-07T14:00:55;21.00;36.80
70460;DHT22;57920;54.796;9.430;2022-12-07T14:03:27;21.00;36.80
70460;DHT22;57920;54.796;9.430;2022-12-07T14:08:32;20.90;36.60
70460;DHT22;57920;54.796;9.430;2022-12-07T14:10:59;20.90;36.50
70460;DHT22;57920;54.796;9.430;2022-12-07T14:13:31;20.90;36.90
70460;DHT22;57920;54.796;9.430;2022-12-07T14:16:34;21.00;36.70
70460;DHT22;57920;54.796;9.430;2022-12-07T14:19:05;21.00;36.90
70460;DHT22;57920;54.796;9.430;2022-12-07T14:21:33;21.00;36.60
70460;DHT22;57920;54.796;9.430;2022-12-07T14:24:19;21.00;36.60
70460;DHT22;57920;54.796;9.430;2022-12-07T14:26:49;21.00;36.70
70460;DHT22;57920;54.796;9.430;2022-12-07T14:29:20;21.00;36.60
70460;DHT22;57920;54.796;9.430;2022-12-07T14:31:46;21.00;36.50
70460;DHT22;57920;54.796;9.430;2022-12-07T14:34:12;20.90;36.30
70460;DHT22;57920;54.796;9.430;2022-12-07T14:36:38;20.90;36.20
70460;DHT22;57920;54.796;9.430;2022-12-07T14:39:03;20.80;36.20
70460;DHT22;57920;54.796;9.430;2022-12-07T14:41:29;20.80;36.20
70460;DHT22;57920;54.796;9.430;2022-12-07T14:44:13;20.70;36.20
70460;DHT22;57920;54.796;9.430;2022-12-07T14:46:49;20.70;36.10
70460;DHT22;57920;54.796;9.430;2022-12-07T14:49:15;20.70;36.10
70460;DHT22;57920;54.796;9.430;2022-12-07T14:51:41;20.60;36.10
70460;DHT22;57920;54.796;9.430;2022-12-07T14:54:16;20.60;36.00
70460;DHT22;57920;54.796;9.430;2022-12-07T14:56:42;20.60;36.00
70460;DHT22;57920;54.796;9.430;2022-12-07T14:59:09;20.60;36.00
70460;DHT22;57920;54.796;9.430;2022-12-07T15:01:35;20.60;35.80
70460;DHT22;57920;54.796;9.430;2022-12-07T15:04:01;20.60;35.80
70460;DHT22;57920;54.796;9.430;2022-12-07T15:06:26;20.60;35.80
70460;DHT22;57920;54.796;9.430;2022-12-07T15:08:52;20.60;35.70
70460;DHT22;57920;54.796;9.430;2022-12-07T15:11:18;20.60;35.70
70460;DHT22;57920;54.796;9.430;2022-12-07T15:13:44;20.60;35.70
70460;DHT22;57920;54.796;9.430;2022-12-07T15:16:31;20.50;35.70
70460;DHT22;57920;54.796;9.430;2022-12-07T15:18:57;20.60;35.60
70460;DHT22;57920;54.796;9.430;2022-12-07T15:21:22;20.60;35.50
70460;DHT22;57920;54.796;9.430;2022-12-07T15:23:48;20.60;35.50
70460;DHT22;57920;54.796;9.430;2022-12-07T15:26:13;20.60;35.50
70460;DHT22;57920;54.796;9.430;2022-12-07T15:28:39;20.60;35.40
70460;DHT22;57920;54.796;9.430;2022-12-07T15:31:14;20.60;35.40
70460;DHT22;57920;54.796;9.430;2022-12-07T15:33:40;20.60;35.40
70460;DHT22;57920;54.796;9.430;2022-12-07T15:36:06;20.60;35.20
70460;DHT22;57920;54.796;9.430;2022-12-07T15:38:31;20.60;35.30
70460;DHT22;57920;54.796;9.430;2022-12-07T15:40:57;20.60;35.20
70460;DHT22;57920;54.796;9.430;2022-12-07T15:43:23;20.60;35.20
70460;DHT22;57920;54.796;9.430;2022-12-07T15:46:28;20.60;35.20
70460;DHT22;57920;54.796;9.430;2022-12-07T15:48:54;20.60;35.10
70460;DHT22;57920;54.796;9.430;2022-12-07T15:51:19;20.60;35.10
70460;DHT22;57920;54.796;9.430;2022-12-07T15:53:45;20.60;35.10
70460;DHT22;57920;54.796;9.430;2022-12-07T15:56:11;20.70;35.10
70460;DHT22;57920;54.796;9.430;2022-12-07T15:58:37;20.60;35.00
70460;DHT22;57920;54.796;9.430;2022-12-07T16:01:13;20.70;35.00
70460;DHT22;57920;54.796;9.430;2022-12-07T16:03:39;20.70;35.00
70460;DHT22;57920;54.796;9.430;2022-12-07T16:06:06;20.70;34.90
70460;DHT22;57920;54.796;9.430;2022-12-07T16:08:31;20.70;34.80
70460;DHT22;57920;54.796;9.430;2022-12-07T16:10:57;20.70;34.80
70460;DHT22;57920;54.796;9.430;2022-12-07T16:13:22;20.70;34.80
70460;DHT22;57920;54.796;9.430;2022-12-07T16:16:12;20.70;34.80
70460;DHT22;57920;54.796;9.430;2022-12-07T16:18:38;20.60;34.90
70460;DHT22;57920;54.796;9.430;2022-12-07T16:21:04;20.60;34.90
70460;DHT22;57920;54.796;9.430;2022-12-07T16:23:30;20.60;34.90
70460;DHT22;57920;54.796;9.430;2022-12-07T16:26:08;20.50;34.90
70460;DHT22;57920;54.796;9.430;2022-12-07T16:28:34;20.50;34.90
70460;DHT22;57920;54.796;9.430;2022-12-07T16:31:05;20.50;35.00
70460;DHT22;57920;54.796;9.430;2022-12-07T16:33:33;20.50;35.00
70460;DHT22;57920;54.796;9.430;2022-12-07T16:36:00;20.30;35.00
70460;DHT22;57920;54.796;9.430;2022-12-07T16:38:25;20.30;35.10
70460;DHT22;57920;54.796;9.430;2022-12-07T16:40:51;20.30;35.10
70460;DHT22;57920;54.796;9.430;2022-12-07T16:43:17;20.30;35.10
70460;DHT22;57920;54.796;9.430;2022-12-07T16:45:46;20.30;35.10
70460;DHT22;57920;54.796;9.430;2022-12-07T16:48:13;20.30;35.10
70460;DHT22;57920;54.796;9.430;2022-12-07T16:50:40;20.30;34.90
70460;DHT22;57920;54.796;9.430;2022-12-07T16:53:09;20.30;34.90
70460;DHT22;57920;54.796;9.430;2022-12-07T16:55:39;20.30;34.80
70460;DHT22;57920;54.796;9.430;2022-12-07T16:58:06;20.30;34.80
70460;DHT22;57920;54.796;9.430;2022-12-07T17:00:32;20.30;34.70
70460;DHT22;57920;54.796;9.430;2022-12-07T17:02:58;20.30;34.70
70460;DHT22;57920;54.796;9.430;2022-12-07T17:05:23;20.30;34.60
70460;DHT22;57920;54.796;9.430;2022-12-07T17:07:50;20.30;34.70
70460;DHT22;57920;54.796;9.430;2022-12-07T17:10:15;20.40;34.60
70460;DHT22;57920;54.796;9.430;2022-12-07T17:12:41;20.40;34.70
70460;DHT22;57920;54.796;9.430;2022-12-07T17:15:08;20.40;34.70
70460;DHT22;57920;54.796;9.430;2022-12-07T17:17:44;20.30;34.70
70460;DHT22;57920;54.796;9.430;2022-12-07T17:20:11;20.40;34.60
70460;DHT22;57920;54.796;9.430;2022-12-07T17:22:40;20.40;34.60
70460;DHT22;57920;54.796;9.430;2022-12-07T17:25:06;20.40;34.60
70460;DHT22;57920;54.796;9.430;2022-12-07T17:27:31;20.40;34.60
70460;DHT22;57920;54.796;9.430;2022-12-07T17:29:57;20.40;34.60
70460;DHT22;57920;54.796;9.430;2022-12-07T17:32:23;20.50;34.50
70460;DHT22;57920;54.796;9.430;2022-12-07T17:34:48;20.50;34.50
70460;DHT22;57920;54.796;9.430;2022-12-07T17:37:17;20.50;34.50
70460;DHT22;57920;54.796;9.430;2022-12-07T17:39:42;20.40;34.50
70460;DHT22;57920;54.796;9.430;2022-12-07T17:42:09;20.50;34.50